createdAt,value
2023-02-11T00:02:54.514Z,98836.81
2023-02-11T00:06:55.694Z,98828.00
2023-02-11T00:10:56.714Z,98831.53
2023-02-11T00:14:57.006Z,98840.69
2023-02-11T00:19:02.565Z,98829.72
2023-02-11T00:23:02.973Z,98843.09
2023-02-11T00:27:03.535Z,98828.69
2023-02-11T00:31:04.395Z,98837.88
2023-02-11T00:35:08.576Z,98830.91
2023-02-11T00:39:10.762Z,98829.31
2023-02-11T00:43:11.340Z,98826.38
2023-02-11T00:47:11.566Z,98810.78
2023-02-11T00:51:15.160Z,98798.16
2023-02-11T00:55:15.868Z,98796.50
2023-02-11T00:59:16.455Z,98794.22
2023-02-11T01:03:18.415Z,98811.25
2023-02-11T01:07:22.577Z,98809.16
2023-02-11T01:11:24.952Z,98800.56
2023-02-11T01:15:27.240Z,98795.50
2023-02-11T01:19:27.819Z,98782.50
2023-02-11T01:23:30.981Z,98769.84
2023-02-11T01:27:31.297Z,98761.09
2023-02-11T01:31:34.071Z,98762.00
2023-02-11T01:35:34.508Z,98772.19
2023-02-11T01:39:40.102Z,98782.41
2023-02-11T01:43:44.472Z,98775.38
2023-02-11T01:47:45.480Z,98778.94
2023-02-11T01:51:51.755Z,98774.19
2023-02-11T01:56:08.842Z,98767.78
2023-02-11T02:00:17.273Z,98752.56
2023-02-11T02:04:22.619Z,98742.72
2023-02-11T02:08:32.742Z,98750.84
2023-02-11T02:12:39.001Z,98729.47
2023-02-11T02:16:41.048Z,98738.91
2023-02-11T02:21:32.722Z,98736.53
2023-02-11T02:26:44.663Z,98731.97
2023-02-11T02:31:30.586Z,98714.59
2023-02-11T02:35:45.851Z,98719.50
2023-02-11T02:39:52.721Z,98706.31
2023-02-11T02:43:55.737Z,98704.66
2023-02-11T02:47:56.662Z,98703.00
2023-02-11T02:52:28.821Z,98705.81
2023-02-11T02:56:42.718Z,98719.41
2023-02-11T03:00:57.943Z,98724.19
2023-02-11T03:05:09.905Z,98712.94
2023-02-11T03:09:22.626Z,98719.13
2023-02-11T03:13:29.461Z,98729.16
2023-02-11T03:17:34.678Z,98726.44
2023-02-11T03:21:39.263Z,98727.34
2023-02-11T03:25:54.599Z,98719.84
2023-02-11T03:30:04.553Z,98706.16
2023-02-11T03:34:15.791Z,98690.16
2023-02-11T03:38:24.456Z,98700.59
2023-02-11T03:42:35.293Z,98700.25
2023-02-11T03:46:42.241Z,98690.31
2023-02-11T03:50:46.282Z,98666.59
2023-02-11T03:54:49.760Z,98670.28
2023-02-11T03:58:53.017Z,98653.13
2023-02-11T04:02:53.410Z,98661.38
2023-02-11T04:06:53.743Z,98668.97
2023-02-11T04:10:54.094Z,98659.63
2023-02-11T04:14:57.604Z,98668.47
2023-02-11T04:18:58.045Z,98660.78
2023-02-11T04:22:58.507Z,98659.84
2023-02-11T04:26:58.904Z,98647.78
2023-02-11T04:31:02.138Z,98638.41
2023-02-11T04:35:03.016Z,98648.13
2023-02-11T04:39:03.634Z,98650.97
2023-02-11T04:43:04.492Z,98633.44
2023-02-11T04:47:08.124Z,98636.75
2023-02-11T04:51:09.282Z,98644.94
2023-02-11T04:55:11.394Z,98626.09
2023-02-11T04:59:13.414Z,98620.84
2023-02-11T05:03:16.954Z,98617.06
2023-02-11T05:07:17.455Z,98611.59
2023-02-11T05:11:21.972Z,98606.38
2023-02-11T05:15:22.477Z,98590.00
2023-02-11T05:19:25.593Z,98606.28
2023-02-11T05:23:26.126Z,98604.91
2023-02-11T05:27:26.412Z,98625.63
2023-02-11T05:31:27.560Z,98615.53
2023-02-11T05:35:31.002Z,98612.63
2023-02-11T05:39:31.528Z,98602.25
2023-02-11T05:43:32.001Z,98606.75
2023-02-11T05:47:32.502Z,98586.28
2023-02-11T05:51:35.466Z,98578.06
2023-02-11T05:55:36.597Z,98585.56
2023-02-11T05:59:37.510Z,98612.84
2023-02-11T06:03:38.163Z,98610.88
2023-02-11T06:07:41.239Z,98586.13
2023-02-11T06:11:42.182Z,98599.00
2023-02-11T06:15:42.842Z,98593.00
2023-02-11T06:19:43.143Z,98593.72
2023-02-11T06:23:46.230Z,98616.25
2023-02-11T06:27:46.816Z,98622.16
2023-02-11T06:31:47.571Z,98597.19
2023-02-11T06:35:48.514Z,98597.00
2023-02-11T06:39:52.277Z,98589.75
2023-02-11T06:43:52.848Z,98596.09
2023-02-11T06:47:55.619Z,98605.19
2023-02-11T06:51:56.285Z,98611.94
2023-02-11T06:55:59.565Z,98611.56
2023-02-11T06:59:59.872Z,98606.91
2023-02-11T07:04:00.368Z,98605.13
2023-02-11T07:08:00.846Z,98616.28
2023-02-11T07:12:04.056Z,98616.84
2023-02-11T07:16:10.606Z,98623.03
2023-02-11T07:20:12.633Z,98617.66
2023-02-11T07:24:14.084Z,98595.06
2023-02-11T07:28:17.371Z,98612.97
2023-02-11T07:32:18.215Z,98622.59
2023-02-11T07:36:20.098Z,98612.69
2023-02-11T07:40:20.867Z,98617.38
2023-02-11T07:44:24.333Z,98619.59
2023-02-11T07:48:27.289Z,98623.31
2023-02-11T07:52:27.957Z,98596.38
2023-02-11T07:56:29.449Z,98614.97
2023-02-11T08:00:32.702Z,98608.50
2023-02-11T08:04:33.243Z,98640.13
2023-02-11T08:08:33.710Z,98637.47
2023-02-11T08:12:34.416Z,98649.03
2023-02-11T08:16:40.849Z,98650.97
2023-02-11T08:20:42.112Z,98660.47
2023-02-11T08:24:42.946Z,98647.06
2023-02-11T08:28:46.697Z,98638.81
2023-02-11T08:32:49.971Z,98642.16
2023-02-11T08:36:51.479Z,98640.97
2023-02-11T08:40:54.192Z,98639.66
2023-02-11T08:44:54.913Z,98626.94
2023-02-11T08:48:58.423Z,98597.31
2023-02-11T08:52:58.661Z,98629.56
2023-02-11T08:56:59.575Z,98623.03
2023-02-11T09:00:59.885Z,98638.13
2023-02-11T09:05:03.447Z,98639.84
2023-02-11T09:09:04.740Z,98635.75
2023-02-11T09:13:05.268Z,98624.22
2023-02-11T09:17:05.714Z,98625.22
2023-02-11T09:21:12.445Z,98610.81
2023-02-11T09:25:13.772Z,98628.47
2023-02-11T09:29:14.191Z,98620.44
2023-02-11T09:33:14.509Z,98624.38
2023-02-11T09:37:17.504Z,98626.06
2023-02-11T09:41:42.404Z,98613.34
2023-02-11T09:45:44.250Z,98617.31
2023-02-11T09:49:53.022Z,98607.09
2023-02-11T09:54:07.117Z,98617.88
2023-02-11T09:58:19.059Z,98611.56
2023-02-11T10:02:29.355Z,98612.59
2023-02-11T10:06:50.846Z,98624.00
2023-02-11T10:11:01.963Z,98624.88
2023-02-11T10:15:17.921Z,98604.28
2023-02-11T10:19:43.614Z,98616.44
2023-02-11T10:23:52.212Z,98620.81
2023-02-11T10:27:59.447Z,98615.78
2023-02-11T10:32:02.593Z,98612.59
2023-02-11T10:36:03.441Z,98631.50
2023-02-11T10:40:04.125Z,98629.28
2023-02-11T10:44:10.839Z,98599.72
2023-02-11T10:48:43.774Z,98635.38
2023-02-11T10:52:44.607Z,98640.09
2023-02-11T10:56:52.354Z,98649.69
2023-02-11T11:00:59.507Z,98650.00
2023-02-11T11:05:03.000Z,98647.94
2023-02-11T11:09:04.779Z,98632.16
2023-02-11T11:13:07.622Z,98634.34
2023-02-11T11:17:22.069Z,98641.13
2023-02-11T11:21:27.556Z,98634.44
2023-02-11T11:25:31.555Z,98622.47
2023-02-11T11:29:38.681Z,98611.75
2023-02-11T11:33:47.134Z,98610.97
2023-02-11T11:37:48.264Z,98601.50
2023-02-11T11:41:59.660Z,98607.31
2023-02-11T11:46:06.331Z,98602.69
2023-02-11T11:50:35.205Z,98598.88
2023-02-11T11:54:38.056Z,98595.84
2023-02-11T11:58:38.825Z,98591.81
2023-02-11T12:03:21.436Z,98592.06
2023-02-11T12:07:41.699Z,98600.63
2023-02-11T12:12:01.656Z,98585.13
2023-02-11T12:16:20.431Z,98588.03
2023-02-11T12:20:38.117Z,98594.88
2023-02-11T12:25:05.300Z,98587.38
2023-02-11T12:29:21.624Z,98592.81
2023-02-11T12:33:42.298Z,98555.97
2023-02-11T12:38:16.145Z,98576.41
2023-02-11T12:43:02.748Z,98570.69
2023-02-11T12:47:22.036Z,98576.50
2023-02-11T12:51:40.357Z,98551.59
2023-02-11T12:55:46.324Z,98560.63
2023-02-11T13:00:00.622Z,98568.09
2023-02-11T13:04:13.603Z,98568.53
2023-02-11T13:08:20.843Z,98558.41
2023-02-11T13:12:34.510Z,98560.91
2023-02-11T13:16:46.113Z,98553.25
2023-02-11T13:20:54.699Z,98552.69
2023-02-11T13:25:06.429Z,98549.06
2023-02-11T13:29:27.920Z,98543.84
2023-02-11T13:33:43.070Z,98548.50
2023-02-11T13:37:51.146Z,98548.84
2023-02-11T13:41:52.959Z,98537.91
2023-02-11T13:46:00.579Z,98543.22
2023-02-11T13:50:10.767Z,98537.06
2023-02-11T13:54:22.195Z,98551.59
2023-02-11T13:58:40.217Z,98546.22
2023-02-11T14:02:53.577Z,98539.91
2023-02-11T14:07:46.744Z,98524.03
2023-02-11T14:11:55.507Z,98521.50
2023-02-11T14:16:10.860Z,98534.13
2023-02-11T14:20:39.838Z,98526.03
2023-02-11T14:24:58.423Z,98538.88
2023-02-11T14:29:14.225Z,98552.34
2023-02-11T14:34:00.289Z,98557.78
2023-02-11T14:38:12.926Z,98560.00
2023-02-11T14:42:22.732Z,98552.31
2023-02-11T14:46:27.856Z,98525.84
2023-02-11T14:50:35.269Z,98548.16
2023-02-11T14:54:38.264Z,98553.50
2023-02-11T14:58:48.803Z,98551.41
2023-02-11T15:02:49.863Z,98547.28
2023-02-11T15:06:52.454Z,98561.38
2023-02-11T15:10:53.379Z,98555.09
2023-02-11T15:15:01.228Z,98551.28
2023-02-11T15:19:07.642Z,98549.72
2023-02-11T15:23:20.615Z,98561.41
2023-02-11T15:27:22.868Z,98554.88
2023-02-11T15:31:29.880Z,98570.53
2023-02-11T15:35:35.237Z,98569.72
2023-02-11T15:39:41.182Z,98563.44
2023-02-11T15:43:46.819Z,98567.38
2023-02-11T15:47:57.327Z,98565.28
2023-02-11T15:52:01.284Z,98566.72
2023-02-11T15:56:16.404Z,98579.34
2023-02-11T16:00:22.180Z,98591.66
2023-02-11T16:04:29.624Z,98583.50
2023-02-11T16:08:34.727Z,98591.03
2023-02-11T16:12:35.360Z,98587.72
2023-02-11T16:16:38.338Z,98594.38
2023-02-11T16:20:43.839Z,98607.25
2023-02-11T16:24:45.272Z,98610.31
2023-02-11T16:28:45.750Z,98612.78
2023-02-11T16:32:46.568Z,98608.63
2023-02-11T16:36:51.576Z,98606.94
2023-02-11T16:40:52.249Z,98607.91
2023-02-11T16:44:53.014Z,98600.75
2023-02-11T16:48:54.073Z,98603.72
2023-02-11T16:52:58.394Z,98608.47
2023-02-11T16:56:59.767Z,98601.97
2023-02-11T17:01:00.851Z,98607.41
2023-02-11T17:05:05.922Z,98610.53
2023-02-11T17:09:09.065Z,98621.78
2023-02-11T17:13:10.036Z,98624.94
2023-02-11T17:17:12.190Z,98612.09
2023-02-11T17:21:13.066Z,98616.53
2023-02-11T17:25:16.226Z,98619.84
2023-02-11T17:29:22.115Z,98605.38
2023-02-11T17:33:22.563Z,98627.72
2023-02-11T17:37:22.977Z,98628.09
2023-02-11T17:41:26.676Z,98630.59
2023-02-11T17:45:26.924Z,98631.19
2023-02-11T17:49:27.795Z,98645.09
2023-02-11T17:53:28.588Z,98638.50
2023-02-11T17:57:31.911Z,98649.25
2023-02-11T18:01:34.537Z,98646.94
2023-02-11T18:05:38.092Z,98666.69
2023-02-11T18:09:41.936Z,98671.31
2023-02-11T18:13:45.216Z,98662.75
2023-02-11T18:17:46.299Z,98660.47
2023-02-11T18:21:49.078Z,98656.81
2023-02-11T18:25:50.301Z,98669.38
2023-02-11T18:29:53.829Z,98654.84
2023-02-11T18:33:55.512Z,98663.41
2023-02-11T18:37:56.278Z,98661.91
2023-02-11T18:41:59.833Z,98668.31
2023-02-11T18:46:04.410Z,98682.53
2023-02-11T18:50:05.146Z,98669.66
2023-02-11T18:54:05.572Z,98685.47
2023-02-11T18:58:05.978Z,98675.56
2023-02-11T19:02:09.897Z,98685.28
2023-02-11T19:06:16.086Z,98688.44
2023-02-11T19:10:16.559Z,98677.44
2023-02-11T19:14:18.398Z,98691.09
2023-02-11T19:18:21.871Z,98687.72
2023-02-11T19:22:22.625Z,98693.31
2023-02-11T19:26:27.182Z,98698.97
2023-02-11T19:30:27.700Z,98694.34
2023-02-11T19:34:30.977Z,98687.06
2023-02-11T19:38:31.851Z,98685.41
2023-02-11T19:42:32.258Z,98680.34
2023-02-11T19:46:38.917Z,98690.53
2023-02-11T19:50:43.808Z,98691.31
2023-02-11T19:54:44.225Z,98683.06
2023-02-11T19:58:46.159Z,98649.97
2023-02-11T20:02:47.236Z,98694.94
2023-02-11T20:06:51.016Z,98671.88
2023-02-11T20:10:51.431Z,98692.00
2023-02-11T20:14:51.871Z,98688.50
2023-02-11T20:18:54.249Z,98692.28
2023-02-11T20:22:58.737Z,98691.00
2023-02-11T20:26:59.209Z,98686.41
2023-02-11T20:31:00.082Z,98693.00
2023-02-11T20:35:00.812Z,98695.66
2023-02-11T20:39:05.999Z,98705.38
2023-02-11T20:43:06.749Z,98709.34
2023-02-11T20:47:07.674Z,98690.38
2023-02-11T20:51:10.751Z,98706.06
2023-02-11T20:55:14.272Z,98718.59
2023-02-11T20:59:16.994Z,98705.06
2023-02-11T21:03:17.796Z,98719.09
2023-02-11T21:07:18.160Z,98723.38
2023-02-11T21:11:21.336Z,98714.81
2023-02-11T21:15:24.252Z,98707.88
2023-02-11T21:19:24.889Z,98693.72
2023-02-11T21:23:25.884Z,98691.91
2023-02-11T21:27:32.431Z,98728.63
2023-02-11T21:31:36.566Z,98723.72
2023-02-11T21:35:37.829Z,98742.47
2023-02-11T21:39:38.385Z,98739.50
2023-02-11T21:43:41.958Z,98748.09
2023-02-11T21:47:42.695Z,98768.38
2023-02-11T21:51:43.195Z,98743.81
2023-02-11T21:55:44.512Z,98757.97
2023-02-11T21:59:48.981Z,98761.59
2023-02-11T22:03:50.763Z,98770.16
2023-02-11T22:07:51.651Z,98758.28
2023-02-11T22:11:53.150Z,98757.31
2023-02-11T22:16:06.040Z,98747.41
2023-02-11T22:20:07.720Z,98746.75
2023-02-11T22:24:09.936Z,98760.13
2023-02-11T22:28:10.240Z,98765.25
2023-02-11T22:32:14.137Z,98770.03
2023-02-11T22:36:20.703Z,98753.38
2023-02-11T22:40:21.490Z,98740.19
2023-02-11T22:44:22.389Z,98746.78
2023-02-11T22:48:25.794Z,98749.28
2023-02-11T22:52:26.266Z,98754.38
2023-02-11T22:56:28.123Z,98734.59
2023-02-11T23:00:33.905Z,98761.94
2023-02-11T23:04:37.114Z,98755.03
2023-02-11T23:08:38.409Z,98752.72
2023-02-11T23:12:38.819Z,98762.63
2023-02-11T23:16:39.365Z,98765.56
2023-02-11T23:20:46.418Z,98757.69
2023-02-11T23:24:46.873Z,98780.91
2023-02-11T23:28:48.398Z,98785.00
2023-02-11T23:32:49.160Z,98785.38
2023-02-11T23:36:52.476Z,98762.28
2023-02-11T23:40:52.996Z,98776.44
2023-02-11T23:44:53.656Z,98781.06
2023-02-11T23:48:55.535Z,98786.00
2023-02-11T23:52:59.245Z,98788.66
2023-02-11T23:56:59.541Z,98771.19
